Time;durP1;ratioP1;P1;durP2;ratioP2;P2;SDS_P1;SDS_P2;PMS_P1;PMS_P2;Temp;Humidity;BMP_temperature;BMP_pressure;BME280_temperature;BME280_humidity;BME280_pressure;Samples;Min_cycle;Max_cycle;Signal;HPM_P1;HPM_P2
2023/09/09 00:00:36;;;;;;;46.42;38.50;;;20.10;98.10;;;;;;5010484;28;20163;-77
2023/09/09 00:03:02;;;;;;;41.05;35.22;;;20.00;98.20;;;;;;5005858;28;20336;-75
2023/09/09 00:05:33;;;;;;;42.33;37.78;;;20.00;98.20;;;;;;5028631;28;21286;-77
2023/09/09 00:07:59;;;;;;;45.53;37.75;;;20.00;98.20;;;;;;5017523;28;20036;-76
2023/09/09 00:10:25;;;;;;;47.17;39.75;;;20.00;98.20;;;;;;5037855;28;20078;-76
2023/09/09 00:12:51;;;;;;;44.38;39.25;;;19.90;98.20;;;;;;5032263;28;20045;-76
2023/09/09 00:15:17;;;;;;;46.70;40.10;;;19.90;98.30;;;;;;5036346;28;20056;-76
2023/09/09 00:17:43;;;;;;;47.10;38.50;;;19.90;98.40;;;;;;5031973;28;20578;-75
2023/09/09 00:20:11;;;;;;;44.63;39.72;;;19.90;98.40;;;;;;5014376;28;20053;-75
2023/09/09 00:22:38;;;;;;;47.75;40.38;;;19.90;98.50;;;;;;5032576;28;20056;-76
2023/09/09 00:25:05;;;;;;;44.25;38.67;;;19.80;98.50;;;;;;5034187;28;20444;-76
2023/09/09 00:27:30;;;;;;;44.17;38.75;;;19.80;98.50;;;;;;5035820;28;20048;-76
2023/09/09 00:29:56;;;;;;;46.42;39.38;;;19.80;98.50;;;;;;5039269;28;20127;-76
2023/09/09 00:32:22;;;;;;;44.92;39.63;;;19.80;98.50;;;;;;5053522;28;20045;-76
2023/09/09 00:34:48;;;;;;;47.70;41.63;;;19.70;98.50;;;;;;5019944;28;20862;-76
2023/09/09 00:37:14;;;;;;;54.63;43.97;;;19.70;98.50;;;;;;5038064;28;20639;-77
2023/09/09 00:39:39;;;;;;;55.42;45.15;;;19.70;98.60;;;;;;5008766;28;20083;-77
2023/09/09 00:42:05;;;;;;;52.35;46.03;;;19.80;98.80;;;;;;5013457;28;20050;-78
2023/09/09 00:44:31;;;;;;;51.05;43.35;;;19.80;99.10;;;;;;5049655;28;20601;-77
2023/09/09 00:46:58;;;;;;;53.38;45.45;;;19.80;99.30;;;;;;5025675;28;20179;-76
2023/09/09 00:49:24;;;;;;;51.42;43.97;;;19.80;99.40;;;;;;5024096;28;20052;-77
2023/09/09 00:51:50;;;;;;;51.92;44.63;;;19.80;99.60;;;;;;5044942;28;21840;-78
2023/09/09 00:54:15;;;;;;;57.83;46.72;;;19.70;99.70;;;;;;5025701;28;20048;-77
2023/09/09 00:56:42;;;;;;;52.00;43.83;;;19.70;99.90;;;;;;5047968;28;20299;-77
2023/09/09 00:59:10;;;;;;;50.08;41.42;;;19.70;99.90;;;;;;5009903;28;20048;-76
2023/09/09 01:01:36;;;;;;;48.78;42.05;;;19.70;99.90;;;;;;5008012;28;20047;-77
2023/09/09 01:04:03;;;;;;;51.72;42.55;;;19.70;99.90;;;;;;5029256;28;20071;-78
2023/09/09 01:06:28;;;;;;;47.72;40.47;;;19.70;99.90;;;;;;5014619;28;20053;-77
2023/09/09 01:08:54;;;;;;;47.72;39.88;;;19.60;99.90;;;;;;5029856;28;20454;-77
2023/09/09 01:11:20;;;;;;;45.22;38.40;;;19.60;99.90;;;;;;5020953;28;20159;-77
2023/09/09 01:13:46;;;;;;;47.22;39.35;;;19.60;99.90;;;;;;5028725;28;20056;-76
2023/09/09 01:16:13;;;;;;;43.08;38.15;;;19.60;99.90;;;;;;5016240;28;20126;-74
2023/09/09 01:18:39;;;;;;;43.25;36.88;;;19.60;99.90;;;;;;5046532;28;20067;-74
2023/09/09 01:21:08;;;;;;;46.13;37.92;;;19.50;99.90;;;;;;5017464;28;20571;-74
2023/09/09 01:23:34;;;;;;;44.80;38.00;;;19.50;99.90;;;;;;5024325;28;20331;-74
2023/09/09 01:26:00;;;;;;;43.75;38.30;;;19.50;99.90;;;;;;5027144;28;20143;-73
2023/09/09 01:28:26;;;;;;;44.63;39.38;;;19.50;99.90;;;;;;5030255;28;20056;-77
2023/09/09 01:30:53;;;;;;;46.30;38.72;;;19.50;99.90;;;;;;5032102;28;20143;-76
2023/09/09 01:33:18;;;;;;;47.40;38.92;;;19.50;99.90;;;;;;5011763;28;20043;-76
2023/09/09 01:35:46;;;;;;;46.67;39.50;;;19.50;99.90;;;;;;5023004;28;20040;-77
2023/09/09 01:38:12;;;;;;;47.47;39.90;;;19.40;99.90;;;;;;5031326;28;20044;-76
2023/09/09 01:40:38;;;;;;;47.25;40.97;;;19.40;99.90;;;;;;5012122;28;20075;-76
2023/09/09 01:43:04;;;;;;;52.13;41.53;;;19.40;99.90;;;;;;5014083;28;20040;-76
2023/09/09 01:45:30;;;;;;;49.95;41.83;;;19.40;99.90;;;;;;5029944;28;20957;-77
2023/09/09 01:47:56;;;;;;;49.15;39.13;;;19.40;99.90;;;;;;5018985;28;20041;-80
2023/09/09 01:50:22;;;;;;;47.80;39.65;;;19.40;99.90;;;;;;5026781;28;20036;-77
2023/09/09 01:52:48;;;;;;;45.45;38.72;;;19.30;99.90;;;;;;5026816;28;21468;-76
2023/09/09 01:55:14;;;;;;;45.67;38.35;;;19.30;99.90;;;;;;4992575;28;20048;-78
2023/09/09 01:57:40;;;;;;;46.45;38.15;;;19.30;99.90;;;;;;5008464;28;20167;-75
2023/09/09 02:00:07;;;;;;;48.95;39.42;;;19.30;99.90;;;;;;5012196;28;20041;-77
2023/09/09 02:02:33;;;;;;;43.65;37.70;;;19.30;99.90;;;;;;4991443;28;20136;-78
2023/09/09 02:04:59;;;;;;;45.08;38.22;;;19.20;99.90;;;;;;5045718;28;20077;-78
2023/09/09 02:07:24;;;;;;;42.70;36.20;;;19.20;99.90;;;;;;5029586;28;20073;-78
2023/09/09 02:09:50;;;;;;;46.78;38.33;;;19.20;99.90;;;;;;5035576;28;20051;-78
2023/09/09 02:12:16;;;;;;;45.08;37.67;;;19.20;99.90;;;;;;5035361;28;20044;-77
2023/09/09 02:14:42;;;;;;;44.53;37.35;;;19.20;99.90;;;;;;5052589;28;20509;-78
2023/09/09 02:17:08;;;;;;;43.47;38.00;;;19.10;99.90;;;;;;5052421;28;20044;-79
2023/09/09 02:19:35;;;;;;;43.45;37.22;;;19.10;99.90;;;;;;5032630;28;20091;-77
2023/09/09 02:22:01;;;;;;;47.13;38.58;;;19.10;99.90;;;;;;5033335;28;20110;-78
2023/09/09 02:24:26;;;;;;;42.25;36.25;;;19.10;99.90;;;;;;5037297;28;20107;-78
2023/09/09 02:26:52;;;;;;;44.67;37.17;;;19.10;99.90;;;;;;5032665;28;20560;-79
2023/09/09 02:29:18;;;;;;;48.28;39.33;;;19.10;99.90;;;;;;5034103;28;20117;-77
2023/09/09 02:31:44;;;;;;;49.80;38.97;;;19.00;99.90;;;;;;5033747;28;20044;-77
2023/09/09 02:34:10;;;;;;;45.45;37.97;;;19.00;99.90;;;;;;5052239;28;20491;-78
2023/09/09 02:36:35;;;;;;;42.70;36.65;;;19.00;99.90;;;;;;5053261;28;20087;-77
2023/09/09 02:39:01;;;;;;;44.40;36.97;;;19.00;99.90;;;;;;5031721;28;20531;-78
2023/09/09 02:41:27;;;;;;;41.55;36.00;;;19.00;99.90;;;;;;5026894;28;20077;-75
2023/09/09 02:43:53;;;;;;;44.78;38.85;;;18.90;99.90;;;;;;5009511;28;20466;-75
2023/09/09 02:46:21;;;;;;;47.70;39.92;;;18.90;99.90;;;;;;5026709;28;20041;-74
2023/09/09 02:48:53;;;;;;;45.25;36.63;;;18.90;99.90;;;;;;5025203;28;20756;-74
2023/09/09 02:51:19;;;;;;;44.33;37.10;;;18.90;99.90;;;;;;5009421;28;20052;-74
2023/09/09 02:53:44;;;;;;;45.20;38.55;;;18.90;99.90;;;;;;5031346;28;20140;-74
2023/09/09 02:56:11;;;;;;;48.05;38.38;;;18.90;99.90;;;;;;5045567;28;20090;-77
2023/09/09 02:58:37;;;;;;;45.65;39.33;;;18.80;99.90;;;;;;5017479;28;20090;-77
2023/09/09 03:01:04;;;;;;;44.05;37.28;;;18.80;99.90;;;;;;5030191;28;20044;-77
2023/09/09 03:03:31;;;;;;;41.75;36.42;;;18.80;99.90;;;;;;5029199;28;20047;-77
2023/09/09 03:05:58;;;;;;;42.80;36.10;;;18.70;99.90;;;;;;5009382;28;20052;-76
2023/09/09 03:08:24;;;;;;;46.33;38.33;;;18.70;99.90;;;;;;5047930;28;20073;-76
2023/09/09 03:10:51;;;;;;;47.35;37.30;;;18.70;99.90;;;;;;5008751;28;20054;-76
2023/09/09 03:13:17;;;;;;;48.00;38.97;;;18.70;99.90;;;;;;5031918;28;20063;-73
2023/09/09 03:15:43;;;;;;;47.30;39.40;;;18.70;99.90;;;;;;5048987;28;20048;-73
2023/09/09 03:18:09;;;;;;;47.60;39.80;;;18.70;99.90;;;;;;5026215;28;20048;-74
2023/09/09 03:20:34;;;;;;;46.65;39.22;;;18.70;99.90;;;;;;4993665;28;20052;-74
2023/09/09 03:23:00;;;;;;;45.55;37.90;;;18.70;99.90;;;;;;5027035;28;20079;-76
2023/09/09 03:25:26;;;;;;;43.50;37.53;;;18.70;99.90;;;;;;5011139;28;20479;-77
2023/09/09 03:27:52;;;;;;;48.20;40.22;;;18.70;99.90;;;;;;5031380;28;20107;-76
2023/09/09 03:30:23;;;;;;;49.22;40.88;;;18.60;99.90;;;;;;5029179;28;20048;-76
2023/09/09 03:32:49;;;;;;;46.05;38.30;;;18.60;99.90;;;;;;5031413;28;20555;-77
2023/09/09 03:35:15;;;;;;;48.20;39.47;;;18.60;99.90;;;;;;5045607;28;20052;-77
2023/09/09 03:37:41;;;;;;;46.00;38.83;;;18.60;99.90;;;;;;5052987;28;20044;-77
2023/09/09 03:40:07;;;;;;;50.33;39.95;;;18.60;99.90;;;;;;5026203;28;20502;-77
2023/09/09 03:42:33;;;;;;;51.85;42.20;;;18.60;99.90;;;;;;5031129;28;20052;-77
2023/09/09 03:44:59;;;;;;;49.88;40.28;;;18.60;99.90;;;;;;5010238;28;20099;-77
2023/09/09 03:47:25;;;;;;;49.70;38.90;;;18.60;99.90;;;;;;5030841;28;20052;-77
2023/09/09 03:49:53;;;;;;;50.55;40.90;;;18.60;99.90;;;;;;5049878;28;20051;-77
2023/09/09 03:52:20;;;;;;;55.45;43.05;;;18.60;99.90;;;;;;5037002;28;20052;-77
2023/09/09 03:54:46;;;;;;;54.70;45.72;;;18.50;99.90;;;;;;5036172;28;20052;-76
2023/09/09 03:57:12;;;;;;;65.55;52.17;;;18.50;99.90;;;;;;5036228;28;20041;-77
2023/09/09 03:59:37;;;;;;;68.95;52.03;;;18.50;99.90;;;;;;5034282;28;20044;-76
2023/09/09 04:02:03;;;;;;;68.88;54.20;;;18.60;99.90;;;;;;5011659;28;20364;-77
2023/09/09 04:04:29;;;;;;;77.75;60.85;;;18.60;99.90;;;;;;5045942;28;20049;-77
2023/09/09 04:06:55;;;;;;;81.78;64.13;;;18.60;99.90;;;;;;5029710;28;20043;-76
2023/09/09 04:09:26;;;;;;;98.22;72.78;;;18.60;99.90;;;;;;5031758;28;20074;-76
2023/09/09 04:11:52;;;;;;;91.03;67.53;;;18.60;99.90;;;;;;5024104;28;20516;-77
2023/09/09 04:14:18;;;;;;;97.78;74.07;;;18.60;99.90;;;;;;5037625;28;20075;-76
2023/09/09 04:16:44;;;;;;;105.97;77.32;;;18.60;99.90;;;;;;5036892;28;20106;-77
2023/09/09 04:19:10;;;;;;;109.05;78.00;;;18.60;99.90;;;;;;5037298;28;20053;-76
2023/09/09 04:21:36;;;;;;;112.32;80.30;;;18.70;99.90;;;;;;5034069;28;20120;-77
2023/09/09 04:24:01;;;;;;;105.00;77.25;;;18.70;99.90;;;;;;5023242;28;20048;-76
2023/09/09 04:26:27;;;;;;;102.30;77.65;;;18.70;99.90;;;;;;5035894;28;20185;-76
2023/09/09 04:28:53;;;;;;;107.43;78.13;;;18.70;99.90;;;;;;5030114;28;20516;-77
2023/09/09 04:31:19;;;;;;;119.32;85.97;;;18.70;99.90;;;;;;5017438;28;20497;-77
2023/09/09 04:33:44;;;;;;;105.07;78.57;;;18.70;99.90;;;;;;5041064;28;20041;-77
2023/09/09 04:36:10;;;;;;;101.40;78.28;;;18.70;99.90;;;;;;5035415;28;20041;-77
2023/09/09 04:38:36;;;;;;;107.60;80.72;;;18.70;99.90;;;;;;5032032;28;20044;-77
2023/09/09 04:41:02;;;;;;;112.82;82.55;;;18.70;99.90;;;;;;5047791;28;20499;-77
2023/09/09 04:43:28;;;;;;;117.15;86.30;;;18.70;99.90;;;;;;5034008;28;20081;-76
2023/09/09 04:45:53;;;;;;;105.18;81.25;;;18.70;99.90;;;;;;5025895;28;20048;-79
2023/09/09 04:48:19;;;;;;;117.65;85.30;;;18.70;99.90;;;;;;5044723;28;20505;-77
2023/09/09 04:50:45;;;;;;;125.40;90.85;;;18.70;99.90;;;;;;4977322;28;20206;-74
2023/09/09 04:53:10;;;;;;;119.22;84.85;;;18.70;99.90;;;;;;5046337;28;21156;-74
2023/09/09 04:55:36;;;;;;;110.30;82.03;;;18.70;99.90;;;;;;5008309;28;20055;-75
2023/09/09 04:58:02;;;;;;;110.47;83.00;;;18.70;99.90;;;;;;5009976;28;20067;-79
2023/09/09 05:00:28;;;;;;;118.88;85.22;;;18.70;99.90;;;;;;5050852;28;20041;-75
2023/09/09 05:02:54;;;;;;;110.88;82.65;;;18.70;99.90;;;;;;5055600;28;20048;-76
2023/09/09 05:05:19;;;;;;;110.53;81.75;;;18.70;99.90;;;;;;5033323;28;21030;-73
2023/09/09 05:07:45;;;;;;;108.28;81.60;;;18.60;99.90;;;;;;5038450;28;20048;-73
2023/09/09 05:10:11;;;;;;;103.15;80.50;;;18.60;99.90;;;;;;5023491;28;20087;-74
2023/09/09 05:12:37;;;;;;;104.32;78.50;;;18.60;99.90;;;;;;5035397;28;20048;-73
2023/09/09 05:15:06;;;;;;;106.63;79.40;;;18.60;99.90;;;;;;5012568;28;20048;-73
2023/09/09 05:17:32;;;;;;;105.40;78.95;;;18.50;99.90;;;;;;5023668;28;20392;-73
2023/09/09 05:19:58;;;;;;;109.97;79.93;;;18.50;99.90;;;;;;5005676;28;20044;-73
2023/09/09 05:22:23;;;;;;;112.30;83.03;;;18.50;99.90;;;;;;5021037;28;20102;-73
2023/09/09 05:24:49;;;;;;;110.30;81.15;;;18.50;99.90;;;;;;5023074;28;22064;-73
2023/09/09 05:27:15;;;;;;;109.57;81.82;;;18.50;99.90;;;;;;5022593;28;20742;-73
2023/09/09 05:29:43;;;;;;;111.82;82.65;;;18.50;99.90;;;;;;4983543;28;20809;-73
2023/09/09 05:32:09;;;;;;;113.55;83.82;;;18.50;99.90;;;;;;5042086;28;20052;-73
2023/09/09 05:34:34;;;;;;;122.95;87.13;;;18.50;99.90;;;;;;5005607;28;20814;-73
2023/09/09 05:37:00;;;;;;;113.50;81.78;;;18.60;99.90;;;;;;5031007;28;20048;-75
2023/09/09 05:39:26;;;;;;;112.60;83.07;;;18.50;99.90;;;;;;5013006;28;20757;-74
2023/09/09 05:41:52;;;;;;;115.90;83.05;;;18.50;99.90;;;;;;4994247;28;20084;-73
2023/09/09 05:44:17;;;;;;;119.88;86.40;;;18.50;99.90;;;;;;5006462;28;21040;-74
2023/09/09 05:46:43;;;;;;;121.13;86.70;;;18.50;99.90;;;;;;5004538;28;20044;-73
2023/09/09 05:49:09;;;;;;;119.47;86.07;;;18.60;99.90;;;;;;5028835;28;20771;-74
2023/09/09 05:51:34;;;;;;;119.25;85.82;;;18.60;99.90;;;;;;5027722;28;20134;-74
2023/09/09 05:54:01;;;;;;;114.07;83.22;;;18.60;99.90;;;;;;5035690;28;20101;-73
2023/09/09 05:56:27;;;;;;;119.72;84.78;;;18.60;99.90;;;;;;5025356;28;20427;-73
2023/09/09 05:58:52;;;;;;;111.63;82.18;;;18.60;99.90;;;;;;5024054;28;20052;-73
2023/09/09 06:01:19;;;;;;;114.70;83.43;;;18.60;99.90;;;;;;5027079;28;20051;-73
2023/09/09 06:03:45;;;;;;;112.68;83.85;;;18.70;99.90;;;;;;5022649;28;20065;-73
2023/09/09 06:06:12;;;;;;;109.18;80.35;;;18.70;99.90;;;;;;5032816;28;20113;-73
2023/09/09 06:08:38;;;;;;;108.43;81.80;;;18.70;99.90;;;;;;5032265;28;21335;-73
2023/09/09 06:11:04;;;;;;;112.53;81.50;;;18.70;99.90;;;;;;5021086;28;20445;-74
2023/09/09 06:13:30;;;;;;;113.53;82.45;;;18.70;99.90;;;;;;5024887;28;20052;-73
2023/09/09 06:15:55;;;;;;;124.35;86.95;;;18.70;99.90;;;;;;5041338;28;20048;-73
2023/09/09 06:18:21;;;;;;;129.32;90.80;;;18.80;99.90;;;;;;5018776;28;20062;-72
2023/09/09 06:20:48;;;;;;;125.20;89.15;;;18.80;99.90;;;;;;5010941;28;20051;-73
2023/09/09 06:23:14;;;;;;;116.63;85.43;;;18.90;99.90;;;;;;5022657;28;20051;-73
2023/09/09 06:25:40;;;;;;;108.63;78.68;;;18.90;99.90;;;;;;4995489;28;20087;-73
2023/09/09 06:28:07;;;;;;;113.40;80.85;;;18.90;99.90;;;;;;5028126;28;20115;-72
2023/09/09 06:30:34;;;;;;;106.95;78.00;;;18.90;99.90;;;;;;5040112;28;20582;-72
2023/09/09 06:33:00;;;;;;;106.47;77.55;;;19.00;99.90;;;;;;5028717;28;20044;-73
2023/09/09 06:35:26;;;;;;;143.15;100.78;;;19.00;99.90;;;;;;5025112;28;20045;-72
2023/09/09 06:37:51;;;;;;;124.80;89.57;;;19.10;99.90;;;;;;5027390;28;20399;-73
2023/09/09 06:40:17;;;;;;;145.82;103.07;;;19.30;99.90;;;;;;5009025;28;20142;-72
2023/09/09 06:42:43;;;;;;;156.98;108.70;;;19.40;99.90;;;;;;5031167;28;20486;-72
2023/09/09 06:45:11;;;;;;;157.80;108.85;;;19.50;99.90;;;;;;5046737;28;20052;-72
2023/09/09 06:47:37;;;;;;;154.15;107.32;;;19.60;99.90;;;;;;5046266;28;20058;-72
2023/09/09 06:50:03;;;;;;;156.10;107.38;;;19.70;99.90;;;;;;5027968;28;20040;-73
2023/09/09 06:52:28;;;;;;;156.80;104.50;;;19.80;99.90;;;;;;5031109;28;20479;-73
2023/09/09 06:54:54;;;;;;;135.38;98.80;;;19.90;99.90;;;;;;5026768;28;20048;-73
2023/09/09 06:57:20;;;;;;;131.85;95.55;;;20.00;99.90;;;;;;5030930;28;20041;-74
2023/09/09 06:59:45;;;;;;;131.75;93.88;;;20.10;99.90;;;;;;5036706;28;20091;-74
2023/09/09 07:02:11;;;;;;;121.53;87.63;;;20.20;99.90;;;;;;5053881;28;20045;-73
2023/09/09 07:04:37;;;;;;;112.90;84.55;;;20.40;99.90;;;;;;5053535;28;20044;-73
2023/09/09 07:07:03;;;;;;;98.75;75.50;;;20.40;99.90;;;;;;5034241;28;20720;-74
2023/09/09 07:09:28;;;;;;;105.25;79.30;;;20.60;99.90;;;;;;5054643;28;20040;-74
2023/09/09 07:11:54;;;;;;;102.05;74.13;;;20.70;99.90;;;;;;5050918;28;20051;-74
2023/09/09 07:14:20;;;;;;;101.78;71.60;;;20.80;99.90;;;;;;5034847;28;20048;-74
2023/09/09 07:16:46;;;;;;;85.82;66.78;;;21.00;99.90;;;;;;5035450;28;20130;-74
2023/09/09 07:19:11;;;;;;;81.70;60.65;;;21.10;99.90;;;;;;5028970;28;22074;-73
2023/09/09 07:21:37;;;;;;;79.43;57.63;;;21.30;99.90;;;;;;5037072;28;20464;-75
2023/09/09 07:24:04;;;;;;;73.82;55.95;;;21.40;99.90;;;;;;5054637;28;20056;-74
2023/09/09 07:26:29;;;;;;;66.68;49.50;;;21.60;99.90;;;;;;5054507;28;20103;-73
2023/09/09 07:28:55;;;;;;;64.63;52.38;;;21.80;99.90;;;;;;5029108;28;20048;-73
2023/09/09 07:31:21;;;;;;;93.72;50.75;;;22.00;99.90;;;;;;5054085;28;20048;-73
2023/09/09 07:33:47;;;;;;;61.78;48.83;;;22.10;99.90;;;;;;5035185;28;20135;-73
2023/09/09 07:36:13;;;;;;;61.33;46.75;;;22.30;99.70;;;;;;5036521;28;20380;-74
2023/09/09 07:38:39;;;;;;;66.60;44.05;;;22.50;99.00;;;;;;5033814;28;20529;-74
2023/09/09 07:41:04;;;;;;;56.67;45.58;;;22.80;98.40;;;;;;5032651;28;20055;-74
2023/09/09 07:43:30;;;;;;;54.50;44.45;;;23.00;97.70;;;;;;4999763;28;20058;-73
2023/09/09 07:45:56;;;;;;;52.03;41.65;;;23.20;96.90;;;;;;5036747;28;20047;-74
2023/09/09 07:48:22;;;;;;;44.88;38.05;;;23.40;96.10;;;;;;5050277;28;20407;-74
2023/09/09 07:50:55;;;;;;;42.45;37.45;;;23.50;95.30;;;;;;5035384;28;20044;-74
2023/09/09 07:53:23;;;;;;;34.58;30.65;;;23.80;93.70;;;;;;5010525;28;20159;-74
2023/09/09 07:55:49;;;;;;;33.42;28.60;;;23.90;93.20;;;;;;5028037;28;20978;-74
2023/09/09 07:58:16;;;;;;;35.45;28.48;;;24.10;91.80;;;;;;5030475;28;20045;-74
2023/09/09 08:00:46;;;;;;;30.65;27.08;;;24.30;90.50;;;;;;5009446;28;20161;-74
2023/09/09 08:03:13;;;;;;;30.17;25.90;;;24.50;87.70;;;;;;5043898;28;20052;-74
2023/09/09 08:05:40;;;;;;;28.45;23.50;;;24.60;84.50;;;;;;5008468;28;20044;-74
2023/09/09 08:08:07;;;;;;;27.33;24.17;;;24.80;81.90;;;;;;5013226;28;20051;-74
2023/09/09 08:10:33;;;;;;;29.33;25.83;;;24.90;78.60;;;;;;5023190;28;20590;-74
2023/09/09 08:13:00;;;;;;;27.98;24.02;;;25.10;75.80;;;;;;5028084;28;20052;-74
2023/09/09 08:15:26;;;;;;;27.25;23.77;;;25.30;74.50;;;;;;5010934;28;20917;-74
2023/09/09 08:17:52;;;;;;;25.92;22.90;;;25.50;71.70;;;;;;5019823;28;20035;-74
2023/09/09 08:20:18;;;;;;;26.77;23.85;;;25.70;68.70;;;;;;5032222;28;20186;-74
2023/09/09 08:22:44;;;;;;;25.25;21.95;;;25.80;65.50;;;;;;5030691;28;20036;-74
2023/09/09 08:25:11;;;;;;;22.45;20.10;;;26.00;61.80;;;;;;5013096;28;20049;-73
2023/09/09 08:27:38;;;;;;;24.58;20.70;;;26.10;60.50;;;;;;5018335;28;20509;-73
2023/09/09 08:30:06;;;;;;;25.60;19.38;;;26.40;56.90;;;;;;5033235;28;20052;-74
2023/09/09 08:32:31;;;;;;;21.05;17.17;;;26.50;52.30;;;;;;5013230;28;20056;-74
2023/09/09 08:34:59;;;;;;;19.65;17.20;;;26.80;48.10;;;;;;5032005;28;20059;-74
2023/09/09 08:37:24;;;;;;;23.63;17.60;;;27.00;42.30;;;;;;5009833;28;20083;-74
2023/09/09 08:39:53;;;;;;;22.77;19.75;;;27.10;37.20;;;;;;5028026;28;20961;-74
2023/09/09 08:42:42;;;;;;;25.00;21.45;;;27.20;36.70;;;;;;5032533;28;21860;-74
2023/09/09 08:45:45;;;;;;;23.35;20.02;;;27.40;33.60;;;;;;5027213;28;20811;-75
2023/09/09 08:48:17;;;;;;;22.70;18.80;;;27.50;25.40;;;;;;5030623;28;22135;-74
2023/09/09 08:50:45;;;;;;;23.88;21.30;;;27.80;30.90;;;;;;5023946;28;20632;-74
2023/09/09 08:53:16;;;;;;;22.20;19.83;;;28.00;24.90;;;;;;5027053;28;20103;-75
2023/09/09 08:55:41;;;;;;;21.35;16.23;;;28.20;18.70;;;;;;5023568;28;20574;-74
2023/09/09 08:58:08;;;;;;;18.90;16.90;;;28.30;12.50;;;;;;5025965;28;20058;-74
2023/09/09 09:00:36;;;;;;;18.70;16.70;;;28.40;6.80;;;;;;5043902;28;20040;-74
2023/09/09 09:03:02;;;;;;;17.00;15.20;;;28.50;1.00;;;;;;5034817;28;20049;-75
2023/09/09 09:05:33;;;;;;;18.42;15.18;;;28.60;1.00;;;;;;5025438;28;20048;-74
2023/09/09 09:08:02;;;;;;;17.52;15.10;;;28.70;1.00;;;;;;5024668;28;20080;-74
2023/09/09 09:10:28;;;;;;;12.77;11.43;;;28.70;1.00;;;;;;5043577;28;20041;-74
2023/09/09 09:12:54;;;;;;;17.92;13.40;;;28.90;1.00;;;;;;5029932;28;20130;-74
2023/09/09 09:15:24;;;;;;;15.85;12.88;;;29.00;1.00;;;;;;5029450;28;20048;-74
2023/09/09 09:17:51;;;;;;;14.50;12.20;;;28.80;1.00;;;;;;5017840;28;20060;-74
2023/09/09 09:20:30;;;;;;;14.98;12.18;;;28.60;1.00;;;;;;5032453;28;20063;-74
2023/09/09 09:22:58;;;;;;;12.18;10.68;;;28.50;1.00;;;;;;5036708;28;20044;-73
2023/09/09 09:25:24;;;;;;;12.63;10.77;;;28.50;1.00;;;;;;5034222;28;20463;-73
2023/09/09 09:27:50;;;;;;;11.68;9.90;;;28.60;1.00;;;;;;5020424;28;20142;-74
2023/09/09 09:30:25;;;;;;;12.10;9.95;;;28.80;1.00;;;;;;5051084;28;20062;-73
2023/09/09 09:32:53;;;;;;;12.18;8.88;;;28.80;1.00;;;;;;5028679;28;20052;-74
2023/09/09 09:35:29;;;;;;;10.68;9.45;;;29.00;1.00;;;;;;5031774;28;20076;-74
2023/09/09 09:38:03;;;;;;;13.48;11.45;;;29.20;1.00;;;;;;5032962;28;20043;-73
2023/09/09 09:40:30;;;;;;;10.00;7.93;;;29.20;1.00;;;;;;5039262;28;20426;-73
2023/09/09 09:42:56;;;;;;;7.90;6.05;;;29.20;1.00;;;;;;5040440;28;20040;-74
2023/09/09 09:45:26;;;;;;;7.53;5.55;;;29.20;1.00;;;;;;5007653;28;20127;-74
2023/09/09 09:47:53;;;;;;;8.00;6.80;;;29.10;1.00;;;;;;5024370;28;20057;-74
2023/09/09 09:50:34;;;;;;;7.57;6.50;;;29.20;1.00;;;;;;5043690;28;20044;-74
2023/09/09 09:53:04;;;;;;;10.02;8.10;;;29.30;1.00;;;;;;5056090;28;20503;-74
2023/09/09 09:55:32;;;;;;;8.32;6.85;;;29.40;1.00;;;;;;5036680;28;20170;-74
2023/09/09 09:58:06;;;;;;;8.25;7.00;;;29.50;1.00;;;;;;5030563;28;20052;-75
2023/09/09 10:00:33;;;;;;;12.93;11.57;;;29.70;1.00;;;;;;5036454;28;20060;-74
2023/09/09 10:03:01;;;;;;;11.48;10.27;;;29.70;1.00;;;;;;5035770;28;20475;-74
2023/09/09 10:05:31;;;;;;;10.93;9.75;;;29.80;1.00;;;;;;5035989;28;20049;-73
2023/09/09 10:08:20;;;;;;;11.48;10.35;;;29.80;1.00;;;;;;5012409;28;20052;-74
2023/09/09 10:11:07;;;;;;;10.57;9.57;;;29.90;1.00;;;;;;5033932;28;20063;-73
2023/09/09 10:13:38;;;;;;;10.35;9.05;;;30.10;1.00;;;;;;5032266;28;20187;-73
2023/09/09 10:16:06;;;;;;;12.75;9.90;;;30.20;1.00;;;;;;5039763;28;20083;-75
2023/09/09 10:18:33;;;;;;;11.45;10.20;;;30.40;1.00;;;;;;5048939;28;20057;-73
2023/09/09 10:21:00;;;;;;;9.75;8.60;;;30.40;99.90;;;;;;5026027;28;20195;-74
2023/09/09 10:23:28;;;;;;;12.43;11.13;;;30.40;1.00;;;;;;5035562;28;20490;-74
2023/09/09 10:25:56;;;;;;;14.68;11.38;;;30.50;1.00;;;;;;5036777;28;20049;-74
2023/09/09 10:28:24;;;;;;;13.88;12.32;;;30.40;1.00;;;;;;5045066;28;20127;-74
2023/09/09 10:30:52;;;;;;;11.30;10.18;;;30.40;1.00;;;;;;5036899;28;20048;-73
2023/09/09 10:33:20;;;;;;;12.23;10.60;;;30.30;1.00;;;;;;5040196;28;20610;-74
2023/09/09 10:35:47;;;;;;;12.25;10.25;;;30.10;1.00;;;;;;5039266;28;20131;-75
2023/09/09 10:38:14;;;;;;;10.57;8.15;;;30.00;1.00;;;;;;5036998;28;20044;-74
2023/09/09 10:40:41;;;;;;;11.15;9.88;;;30.10;1.00;;;;;;5044232;28;20075;-73
2023/09/09 10:43:07;;;;;;;11.75;10.55;;;30.20;1.00;;;;;;5023584;28;20052;-75
2023/09/09 10:45:41;;;;;;;9.75;8.60;;;30.20;1.00;;;;;;5046792;28;20468;-75
2023/09/09 10:48:10;;;;;;;9.90;8.55;;;30.40;1.00;;;;;;5053418;28;20053;-74
2023/09/09 10:50:44;;;;;;;10.75;9.55;;;30.40;99.90;;;;;;5040301;28;20390;-74
2023/09/09 10:53:26;;;;;;;8.52;7.25;;;30.40;99.90;;;;;;5040046;28;20052;-74
2023/09/09 10:55:58;;;;;;;9.88;8.88;;;30.70;99.90;;;;;;5052643;28;20764;-75
2023/09/09 10:58:35;;;;;;;9.50;8.25;;;31.00;99.90;;;;;;5053194;28;20056;-74
2023/09/09 11:01:01;;;;;;;11.90;10.13;;;30.90;99.90;;;;;;5033821;28;20040;-73
2023/09/09 11:03:49;;;;;;;12.98;9.05;;;30.90;99.90;;;;;;5039884;28;20466;-73
2023/09/09 11:06:30;;;;;;;10.40;8.02;;;31.10;99.90;;;;;;5040683;28;20212;-73
2023/09/09 11:08:59;;;;;;;10.02;8.98;;;31.10;99.90;;;;;;5057582;28;20054;-74
2023/09/09 11:11:27;;;;;;;9.80;8.65;;;31.10;58.50;;;;;;5039759;28;20056;-75
2023/09/09 11:14:02;;;;;;;8.77;7.20;;;31.20;16.30;;;;;;5041779;28;20040;-75
2023/09/09 11:16:35;;;;;;;8.63;7.45;;;31.20;99.90;;;;;;5041239;28;20107;-75
2023/09/09 11:19:09;;;;;;;9.70;7.63;;;31.10;43.10;;;;;;5023209;28;20048;-75
2023/09/09 11:21:39;;;;;;;7.35;6.38;;;30.80;1.00;;;;;;5041737;28;20455;-76
2023/09/09 11:24:05;;;;;;;6.35;5.32;;;30.90;99.90;;;;;;5049709;28;20052;-75
2023/09/09 11:26:31;;;;;;;6.18;5.00;;;31.00;99.90;;;;;;5024449;28;20058;-75
2023/09/09 11:28:57;;;;;;;5.68;4.40;;;30.90;16.30;;;;;;5047831;28;20434;-75
2023/09/09 11:31:24;;;;;;;10.25;5.35;;;30.90;99.90;;;;;;5060606;28;20048;-76
2023/09/09 11:33:53;;;;;;;5.90;4.45;;;31.00;99.90;;;;;;5059852;28;20049;-75
2023/09/09 11:36:20;;;;;;;5.47;4.50;;;31.20;1.00;;;;;;5040416;28;20056;-77
2023/09/09 11:38:46;;;;;;;7.70;5.22;;;31.40;99.90;;;;;;5005089;28;20055;-75
2023/09/09 11:41:23;;;;;;;7.70;6.22;;;31.40;99.90;;;;;;5042938;28;20056;-76
2023/09/09 11:44:09;;;;;;;7.30;5.72;;;31.40;91.20;;;;;;5037579;28;20071;-76
2023/09/09 11:46:43;;;;;;;10.45;8.52;;;31.60;1.00;;;;;;5054331;28;20047;-75
2023/09/09 11:49:11;;;;;;;8.98;8.07;;;31.50;1.00;;;;;;5019375;28;20053;-76
2023/09/09 11:51:37;;;;;;;8.70;7.80;;;31.20;1.00;;;;;;5041729;28;20052;-76
2023/09/09 11:54:04;;;;;;;8.88;7.97;;;31.40;99.90;;;;;;5055118;28;20040;-76
2023/09/09 11:56:33;;;;;;;8.77;7.85;;;31.60;99.90;;;;;;5038937;28;20063;-76
2023/09/09 11:58:59;;;;;;;10.40;9.23;;;31.80;99.90;;;;;;5038550;28;20380;-75
2023/09/09 12:01:25;;;;;;;11.57;8.70;;;31.90;1.00;;;;;;5037793;28;20500;-75
2023/09/09 12:04:06;;;;;;;10.95;9.18;;;32.00;57.70;;;;;;5004636;28;20052;-76
2023/09/09 12:06:33;;;;;;;10.32;9.32;;;32.00;99.90;;;;;;5036485;28;20044;-76
2023/09/09 12:08:59;;;;;;;11.35;10.15;;;32.20;99.90;;;;;;5023437;28;20626;-76
2023/09/09 12:11:25;;;;;;;9.73;8.45;;;32.10;1.00;;;;;;5033982;28;20044;-75
2023/09/09 12:13:51;;;;;;;12.68;11.38;;;32.30;1.00;;;;;;5040318;28;20562;-76
2023/09/09 12:16:17;;;;;;;14.00;11.30;;;32.40;1.00;;;;;;5054851;28;20060;-76
2023/09/09 12:18:51;;;;;;;12.00;9.52;;;32.20;99.90;;;;;;5043546;28;20055;-76
2023/09/09 12:21:17;;;;;;;13.10;10.80;;;32.00;1.00;;;;;;5037836;28;20191;-76
2023/09/09 12:23:43;;;;;;;10.48;9.35;;;32.00;99.90;;;;;;5041135;28;20039;-76
2023/09/09 12:26:20;;;;;;;13.43;10.25;;;32.20;1.00;;;;;;5063495;28;20635;-73
2023/09/09 12:29:03;;;;;;;13.93;12.43;;;32.50;69.20;;;;;;5022294;28;20091;-75